createdAt,value
2022-11-04T00:04:34.099Z,18.70
2022-11-04T00:09:38.505Z,5.57
2022-11-04T00:14:42.581Z,13.18
2022-11-04T00:20:06.208Z,8.32
2022-11-04T00:25:36.610Z,19.13
2022-11-04T00:30:40.356Z,15.00
2022-11-04T00:35:50.642Z,10.07
2022-11-04T00:40:54.641Z,13.35
2022-11-04T00:45:58.243Z,6.53
2022-11-04T00:56:22.505Z,11.00
2022-11-04T01:01:30.299Z,13.68
2022-11-04T01:06:33.006Z,12.00
2022-11-04T01:11:36.161Z,15.20
2022-11-04T01:16:42.170Z,12.40
2022-11-04T01:21:52.870Z,14.88
2022-11-04T01:26:59.797Z,20.50
2022-11-04T01:32:04.173Z,27.80
2022-11-04T01:37:09.492Z,15.75
2022-11-04T01:42:18.273Z,23.75
2022-11-04T01:47:31.543Z,13.88
2022-11-04T01:52:47.721Z,13.43
2022-11-04T01:57:51.822Z,24.73
2022-11-04T02:03:04.334Z,22.75
2022-11-04T02:08:09.787Z,25.73
2022-11-04T02:13:12.319Z,35.97
2022-11-04T02:18:22.158Z,30.00
2022-11-04T02:23:55.457Z,15.77
2022-11-04T02:29:12.784Z,21.95
2022-11-04T02:34:40.554Z,43.45
2022-11-04T02:40:11.414Z,43.65
2022-11-04T02:45:26.768Z,34.72
2022-11-04T02:50:40.602Z,26.25
2022-11-04T02:56:02.427Z,22.08
2022-11-04T03:07:17.508Z,13.32
2022-11-04T03:14:00.534Z,20.92
2022-11-04T03:19:25.505Z,19.13
2022-11-04T03:24:31.927Z,16.75
2022-11-04T03:30:02.857Z,11.93
2022-11-04T03:35:21.294Z,10.50
2022-11-04T03:40:24.846Z,11.32
2022-11-04T03:45:29.226Z,11.82
2022-11-04T03:50:37.115Z,17.17
2022-11-04T03:55:47.122Z,14.00
2022-11-04T04:01:16.275Z,13.73
2022-11-04T04:06:34.986Z,15.55
2022-11-04T04:12:16.197Z,13.40
2022-11-04T04:17:51.179Z,13.82
2022-11-04T04:23:32.544Z,12.35
2022-11-04T04:29:12.038Z,18.15
2022-11-04T04:34:37.323Z,12.07
2022-11-04T04:40:22.080Z,13.77
2022-11-04T04:45:54.524Z,10.48
2022-11-04T04:51:09.095Z,3.35
2022-11-04T04:56:24.390Z,6.10
2022-11-04T05:01:47.985Z,6.72
2022-11-04T05:18:26.095Z,8.40
2022-11-04T05:23:35.099Z,8.27
2022-11-04T05:28:49.909Z,6.40
2022-11-04T05:33:59.945Z,5.90
2022-11-04T05:39:06.077Z,10.25
2022-11-04T05:50:00.276Z,7.53
2022-11-04T06:00:48.801Z,12.70
2022-11-04T06:05:52.949Z,8.18
2022-11-04T06:11:33.433Z,5.18
2022-11-04T06:28:22.060Z,3.47
2022-11-04T06:33:35.411Z,8.43
2022-11-04T06:39:04.646Z,19.45
2022-11-04T06:44:54.295Z,5.43
2022-11-04T06:56:39.410Z,14.27
2022-11-04T07:08:44.480Z,8.30
2022-11-04T07:13:50.022Z,8.55
2022-11-04T07:32:23.068Z,16.65
2022-11-04T07:44:19.515Z,10.07
2022-11-04T07:49:23.049Z,9.93
2022-11-04T07:59:52.564Z,11.85
2022-11-04T08:05:10.476Z,16.02
2022-11-04T08:10:28.502Z,6.38
2022-11-04T08:15:37.824Z,5.10
2022-11-04T08:21:33.452Z,2.15
2022-11-04T08:32:18.680Z,4.97
2022-11-04T08:37:40.839Z,8.60
2022-11-04T08:43:19.364Z,5.78
2022-11-04T08:48:48.432Z,11.90
2022-11-04T08:54:57.395Z,11.63
2022-11-04T09:01:25.601Z,8.55
2022-11-04T09:13:39.589Z,5.07
2022-11-04T09:25:50.852Z,6.38
2022-11-04T09:31:07.515Z,9.95
2022-11-04T09:36:56.406Z,11.00
2022-11-04T09:47:51.229Z,11.23
2022-11-04T09:58:42.658Z,4.28
2022-11-04T10:04:05.276Z,2.80
2022-11-04T10:09:55.583Z,8.13
2022-11-04T10:15:34.587Z,8.32
2022-11-04T10:21:35.597Z,9.43
2022-11-04T10:27:22.597Z,9.77
2022-11-04T10:32:56.105Z,11.70
2022-11-04T10:38:23.486Z,8.23
2022-11-04T10:43:54.135Z,13.95
2022-11-04T10:56:09.943Z,12.10
2022-11-04T11:12:51.452Z,10.27
2022-11-04T11:18:42.907Z,13.80
2022-11-04T11:24:16.836Z,9.65
2022-11-04T11:29:43.540Z,22.77
2022-11-04T11:35:23.650Z,6.75
2022-11-04T11:41:10.502Z,11.52
2022-11-04T11:46:17.468Z,19.50
2022-11-04T11:51:55.519Z,6.57
2022-11-04T11:57:25.531Z,9.50
2022-11-04T12:15:05.020Z,17.77
2022-11-04T12:20:51.142Z,13.90
2022-11-04T12:33:20.983Z,12.48
2022-11-04T12:46:02.396Z,12.25
2022-11-04T12:52:02.043Z,8.38
2022-11-04T12:57:37.139Z,7.75
2022-11-04T13:03:15.215Z,12.50
2022-11-04T13:26:51.753Z,11.93
2022-11-04T13:32:52.160Z,20.60
2022-11-04T13:38:17.049Z,6.95
2022-11-04T13:43:47.393Z,9.77
2022-11-04T13:49:03.100Z,6.50
2022-11-04T13:55:00.472Z,7.10
2022-11-04T14:06:29.112Z,7.22
2022-11-04T14:18:37.615Z,11.73
2022-11-04T14:59:35.869Z,12.50
2022-11-04T15:05:33.872Z,11.23
2022-11-04T15:10:37.906Z,11.60
2022-11-04T15:29:35.225Z,12.15
2022-11-04T16:22:16.090Z,3.83
2022-11-04T16:27:39.114Z,5.72
2022-11-04T16:32:55.825Z,6.13
2022-11-04T16:38:20.309Z,3.38
2022-11-04T16:54:15.629Z,14.10
2022-11-04T16:59:27.010Z,9.25
2022-11-04T17:10:17.036Z,8.93
2022-11-04T17:15:24.000Z,12.38
2022-11-04T17:20:37.449Z,13.23
2022-11-04T17:25:59.851Z,8.05
2022-11-04T17:31:10.682Z,16.35
2022-11-04T17:36:36.501Z,17.92
2022-11-04T17:42:07.811Z,11.98
2022-11-04T17:47:19.993Z,15.93
2022-11-04T17:52:32.543Z,6.05
2022-11-04T17:57:41.681Z,8.60
2022-11-04T18:02:59.339Z,8.73
2022-11-04T18:08:05.413Z,17.77
2022-11-04T18:13:11.096Z,10.25
2022-11-04T18:18:15.298Z,9.68
2022-11-04T18:23:19.775Z,7.47
2022-11-04T18:28:34.223Z,13.00
2022-11-04T18:33:48.344Z,11.25
2022-11-04T18:38:51.924Z,11.13
2022-11-04T18:43:57.837Z,13.10
2022-11-04T18:49:04.099Z,9.90
2022-11-04T18:54:08.896Z,6.28
2022-11-04T18:59:15.857Z,13.52
2022-11-04T19:04:20.536Z,19.23
2022-11-04T19:14:56.082Z,12.77
2022-11-04T19:20:05.444Z,11.35
2022-11-04T19:25:11.883Z,8.85
2022-11-04T19:30:15.733Z,11.30
2022-11-04T19:35:41.856Z,12.75
2022-11-04T19:41:31.873Z,5.50
2022-11-04T19:46:40.557Z,17.70
2022-11-04T19:51:49.815Z,14.35
2022-11-04T19:56:56.917Z,15.20
2022-11-04T20:02:02.085Z,20.85
2022-11-04T20:07:08.383Z,17.20
2022-11-04T20:12:33.356Z,13.65
2022-11-04T20:17:36.904Z,27.92
2022-11-04T20:22:39.366Z,23.50
2022-11-04T20:27:41.843Z,19.58
2022-11-04T20:32:45.805Z,27.73
2022-11-04T20:37:51.005Z,35.67
2022-11-04T20:42:57.313Z,18.48
2022-11-04T20:48:00.661Z,14.60
2022-11-04T20:53:04.080Z,9.70
2022-11-04T20:58:06.828Z,14.60
2022-11-04T21:03:10.145Z,15.30
2022-11-04T21:08:17.043Z,14.27
2022-11-04T21:13:22.032Z,16.73
2022-11-04T21:18:34.377Z,11.77
2022-11-04T21:23:43.314Z,16.73
2022-11-04T21:28:45.653Z,21.40
2022-11-04T21:33:50.235Z,13.98
2022-11-04T21:38:54.363Z,18.33
2022-11-04T21:44:03.539Z,11.20
2022-11-04T21:49:32.289Z,14.70
2022-11-04T21:54:38.388Z,25.90
2022-11-04T21:59:47.641Z,15.18
2022-11-04T22:04:50.694Z,18.02
2022-11-04T22:09:53.121Z,15.93
2022-11-04T22:15:01.690Z,13.43
2022-11-04T22:20:07.710Z,13.98
2022-11-04T22:25:13.793Z,5.90
2022-11-04T22:30:21.396Z,12.60
2022-11-04T22:35:41.353Z,6.88
2022-11-04T22:40:47.502Z,10.27
2022-11-04T22:46:03.405Z,11.75
2022-11-04T22:51:09.635Z,22.00
2022-11-04T22:56:19.754Z,12.00
2022-11-04T23:01:30.833Z,19.63
2022-11-04T23:06:36.282Z,16.20
2022-11-04T23:12:08.444Z,24.80
2022-11-04T23:17:44.076Z,14.48
2022-11-04T23:23:19.290Z,12.05
2022-11-04T23:28:46.343Z,7.88
2022-11-04T23:34:17.563Z,11.30
2022-11-04T23:39:27.287Z,6.15
2022-11-04T23:44:50.797Z,6.60
2022-11-04T23:50:18.962Z,4.63
2022-11-04T23:55:42.799Z,8.38
